sensor_id;sensor_type;location;lat;lon;timestamp;temperature;humidity
3705;DHT22;1868;48.918;9.438;2023-11-19T00:01:06;9.30;97.40
3705;DHT22;1868;48.918;9.438;2023-11-19T00:03:34;9.30;97.40
3705;DHT22;1868;48.918;9.438;2023-11-19T00:06:04;9.30;97.40
3705;DHT22;1868;48.918;9.438;2023-11-19T00:08:33;9.30;97.40
3705;DHT22;1868;48.918;9.438;2023-11-19T00:11:03;9.30;97.40
3705;DHT22;1868;48.918;9.438;2023-11-19T00:13:32;9.40;97.40
3705;DHT22;1868;48.918;9.438;2023-11-19T00:16:02;9.40;97.40
3705;DHT22;1868;48.918;9.438;2023-11-19T00:18:32;9.40;97.40
3705;DHT22;1868;48.918;9.438;2023-11-19T00:21:01;9.40;97.40
3705;DHT22;1868;48.918;9.438;2023-11-19T00:23:30;9.40;97.40
3705;DHT22;1868;48.918;9.438;2023-11-19T00:25:59;9.40;97.40
3705;DHT22;1868;48.918;9.438;2023-11-19T00:28:28;9.50;97.40
3705;DHT22;1868;48.918;9.438;2023-11-19T00:30:56;9.50;97.40
3705;DHT22;1868;48.918;9.438;2023-11-19T00:33:27;9.50;97.40
3705;DHT22;1868;48.918;9.438;2023-11-19T00:35:56;9.50;97.40
3705;DHT22;1868;48.918;9.438;2023-11-19T00:38:26;9.60;97.40
3705;DHT22;1868;48.918;9.438;2023-11-19T00:40:55;9.60;97.40
3705;DHT22;1868;48.918;9.438;2023-11-19T00:43:24;9.60;97.40
3705;DHT22;1868;48.918;9.438;2023-11-19T00:45:55;9.60;97.40
3705;DHT22;1868;48.918;9.438;2023-11-19T00:48:23;9.70;97.40
3705;DHT22;1868;48.918;9.438;2023-11-19T00:50:53;9.60;97.40
3705;DHT22;1868;48.918;9.438;2023-11-19T00:53:21;9.70;97.40
3705;DHT22;1868;48.918;9.438;2023-11-19T00:55:50;9.70;97.40
3705;DHT22;1868;48.918;9.438;2023-11-19T00:58:18;9.70;97.40
3705;DHT22;1868;48.918;9.438;2023-11-19T01:00:47;9.70;97.40
3705;DHT22;1868;48.918;9.438;2023-11-19T01:03:16;9.70;97.40
3705;DHT22;1868;48.918;9.438;2023-11-19T01:05:44;9.70;97.40
3705;DHT22;1868;48.918;9.438;2023-11-19T01:08:16;9.70;97.40
3705;DHT22;1868;48.918;9.438;2023-11-19T01:10:45;9.70;97.40
3705;DHT22;1868;48.918;9.438;2023-11-19T01:13:15;9.80;97.40
3705;DHT22;1868;48.918;9.438;2023-11-19T01:15:44;9.70;97.40
3705;DHT22;1868;48.918;9.438;2023-11-19T01:18:13;9.80;97.40
3705;DHT22;1868;48.918;9.438;2023-11-19T01:20:42;9.80;97.40
3705;DHT22;1868;48.918;9.438;2023-11-19T01:23:12;9.80;97.40
3705;DHT22;1868;48.918;9.438;2023-11-19T01:25:42;9.80;97.40
3705;DHT22;1868;48.918;9.438;2023-11-19T01:28:12;9.90;97.40
3705;DHT22;1868;48.918;9.438;2023-11-19T01:30:41;9.80;97.40
3705;DHT22;1868;48.918;9.438;2023-11-19T01:33:09;9.80;97.40
3705;DHT22;1868;48.918;9.438;2023-11-19T01:35:38;9.90;97.40
3705;DHT22;1868;48.918;9.438;2023-11-19T01:38:07;9.90;97.40
3705;DHT22;1868;48.918;9.438;2023-11-19T01:40:37;9.90;97.40
3705;DHT22;1868;48.918;9.438;2023-11-19T01:43:07;10.00;97.40
3705;DHT22;1868;48.918;9.438;2023-11-19T01:45:39;10.00;97.40
3705;DHT22;1868;48.918;9.438;2023-11-19T01:48:08;10.00;97.40
3705;DHT22;1868;48.918;9.438;2023-11-19T01:50:38;10.00;97.40
3705;DHT22;1868;48.918;9.438;2023-11-19T01:53:07;10.00;97.40
3705;DHT22;1868;48.918;9.438;2023-11-19T01:55:36;10.10;97.40
3705;DHT22;1868;48.918;9.438;2023-11-19T01:58:06;10.10;97.40
3705;DHT22;1868;48.918;9.438;2023-11-19T02:00:37;10.10;97.40
3705;DHT22;1868;48.918;9.438;2023-11-19T02:03:09;10.10;97.40
3705;DHT22;1868;48.918;9.438;2023-11-19T02:05:39;10.10;97.40
3705;DHT22;1868;48.918;9.438;2023-11-19T02:08:08;10.20;97.40
3705;DHT22;1868;48.918;9.438;2023-11-19T02:10:37;10.20;97.40
3705;DHT22;1868;48.918;9.438;2023-11-19T02:13:08;10.20;97.40
3705;DHT22;1868;48.918;9.438;2023-11-19T02:15:37;10.20;97.40
3705;DHT22;1868;48.918;9.438;2023-11-19T02:18:19;10.20;97.40
3705;DHT22;1868;48.918;9.438;2023-11-19T02:20:50;10.20;97.40
3705;DHT22;1868;48.918;9.438;2023-11-19T02:23:20;10.10;97.40
3705;DHT22;1868;48.918;9.438;2023-11-19T02:25:57;10.10;97.40
3705;DHT22;1868;48.918;9.438;2023-11-19T02:28:32;10.20;97.40
3705;DHT22;1868;48.918;9.438;2023-11-19T02:31:02;10.20;97.40
3705;DHT22;1868;48.918;9.438;2023-11-19T02:33:37;10.20;97.40
3705;DHT22;1868;48.918;9.438;2023-11-19T02:36:07;10.20;97.40
3705;DHT22;1868;48.918;9.438;2023-11-19T02:38:37;10.30;97.40
3705;DHT22;1868;48.918;9.438;2023-11-19T02:41:06;10.30;97.40
3705;DHT22;1868;48.918;9.438;2023-11-19T02:43:38;10.30;97.40
3705;DHT22;1868;48.918;9.438;2023-11-19T02:46:06;10.30;97.40
3705;DHT22;1868;48.918;9.438;2023-11-19T02:48:39;10.30;97.40
3705;DHT22;1868;48.918;9.438;2023-11-19T02:51:08;10.30;97.40
3705;DHT22;1868;48.918;9.438;2023-11-19T02:53:38;10.30;97.40
3705;DHT22;1868;48.918;9.438;2023-11-19T02:56:08;10.40;97.40
3705;DHT22;1868;48.918;9.438;2023-11-19T02:58:48;10.30;97.40
3705;DHT22;1868;48.918;9.438;2023-11-19T03:01:23;10.30;97.40
3705;DHT22;1868;48.918;9.438;2023-11-19T03:03:59;10.40;97.40
3705;DHT22;1868;48.918;9.438;2023-11-19T03:06:30;10.40;97.40
3705;DHT22;1868;48.918;9.438;2023-11-19T03:08:59;10.40;97.40
3705;DHT22;1868;48.918;9.438;2023-11-19T03:11:33;10.40;97.40
3705;DHT22;1868;48.918;9.438;2023-11-19T03:14:04;10.30;97.40
3705;DHT22;1868;48.918;9.438;2023-11-19T03:16:32;10.40;97.40
3705;DHT22;1868;48.918;9.438;2023-11-19T03:19:01;10.40;97.40
3705;DHT22;1868;48.918;9.438;2023-11-19T03:21:32;10.40;97.40
3705;DHT22;1868;48.918;9.438;2023-11-19T03:24:01;10.50;97.40
3705;DHT22;1868;48.918;9.438;2023-11-19T03:26:29;10.40;97.40
3705;DHT22;1868;48.918;9.438;2023-11-19T03:28:58;10.50;97.40
3705;DHT22;1868;48.918;9.438;2023-11-19T03:31:28;10.50;97.40
3705;DHT22;1868;48.918;9.438;2023-11-19T03:33:57;10.40;97.40
3705;DHT22;1868;48.918;9.438;2023-11-19T03:36:31;10.40;97.40
3705;DHT22;1868;48.918;9.438;2023-11-19T03:39:01;10.30;97.40
3705;DHT22;1868;48.918;9.438;2023-11-19T03:41:30;10.30;97.40
3705;DHT22;1868;48.918;9.438;2023-11-19T03:44:01;10.30;97.40
3705;DHT22;1868;48.918;9.438;2023-11-19T03:46:31;10.40;97.40
3705;DHT22;1868;48.918;9.438;2023-11-19T03:49:00;10.40;97.40
3705;DHT22;1868;48.918;9.438;2023-11-19T03:51:31;10.40;97.40
3705;DHT22;1868;48.918;9.438;2023-11-19T03:54:02;10.50;97.40
3705;DHT22;1868;48.918;9.438;2023-11-19T03:56:31;10.40;97.40
3705;DHT22;1868;48.918;9.438;2023-11-19T03:58:59;10.40;97.40
3705;DHT22;1868;48.918;9.438;2023-11-19T04:01:28;10.50;97.40
3705;DHT22;1868;48.918;9.438;2023-11-19T04:03:58;10.50;97.40
3705;DHT22;1868;48.918;9.438;2023-11-19T04:06:27;10.60;97.40
3705;DHT22;1868;48.918;9.438;2023-11-19T04:08:56;10.60;97.40
3705;DHT22;1868;48.918;9.438;2023-11-19T04:11:24;10.60;97.40
3705;DHT22;1868;48.918;9.438;2023-11-19T04:13:58;10.70;97.40
3705;DHT22;1868;48.918;9.438;2023-11-19T04:16:26;10.70;97.40
3705;DHT22;1868;48.918;9.438;2023-11-19T04:18:58;10.80;97.40
3705;DHT22;1868;48.918;9.438;2023-11-19T04:21:26;10.90;97.40
3705;DHT22;1868;48.918;9.438;2023-11-19T04:23:55;10.90;97.40
3705;DHT22;1868;48.918;9.438;2023-11-19T04:26:24;11.00;97.40
3705;DHT22;1868;48.918;9.438;2023-11-19T04:28:52;11.00;97.40
3705;DHT22;1868;48.918;9.438;2023-11-19T04:31:21;11.00;97.40
3705;DHT22;1868;48.918;9.438;2023-11-19T04:33:53;11.00;97.40
3705;DHT22;1868;48.918;9.438;2023-11-19T04:36:23;11.00;97.40
3705;DHT22;1868;48.918;9.438;2023-11-19T04:38:52;11.10;97.40
3705;DHT22;1868;48.918;9.438;2023-11-19T04:41:21;11.10;97.40
3705;DHT22;1868;48.918;9.438;2023-11-19T04:43:50;11.20;97.40
3705;DHT22;1868;48.918;9.438;2023-11-19T04:46:19;11.20;97.40
3705;DHT22;1868;48.918;9.438;2023-11-19T04:48:48;11.20;97.40
3705;DHT22;1868;48.918;9.438;2023-11-19T04:51:17;11.20;97.40
3705;DHT22;1868;48.918;9.438;2023-11-19T04:53:47;11.20;97.40
3705;DHT22;1868;48.918;9.438;2023-11-19T04:56:16;11.20;97.40
3705;DHT22;1868;48.918;9.438;2023-11-19T04:58:46;11.20;97.40
3705;DHT22;1868;48.918;9.438;2023-11-19T05:01:15;11.30;97.40
3705;DHT22;1868;48.918;9.438;2023-11-19T05:03:46;11.30;97.40
3705;DHT22;1868;48.918;9.438;2023-11-19T05:06:15;11.30;97.40
3705;DHT22;1868;48.918;9.438;2023-11-19T05:08:44;11.30;97.40
3705;DHT22;1868;48.918;9.438;2023-11-19T05:11:14;11.40;97.40
3705;DHT22;1868;48.918;9.438;2023-11-19T05:13:45;11.30;97.40
3705;DHT22;1868;48.918;9.438;2023-11-19T05:16:13;11.30;97.40
3705;DHT22;1868;48.918;9.438;2023-11-19T05:18:43;11.30;97.40
3705;DHT22;1868;48.918;9.438;2023-11-19T05:21:12;11.40;97.40
3705;DHT22;1868;48.918;9.438;2023-11-19T05:23:41;11.30;97.40
3705;DHT22;1868;48.918;9.438;2023-11-19T05:26:19;11.40;97.40
3705;DHT22;1868;48.918;9.438;2023-11-19T05:28:50;11.40;97.40
3705;DHT22;1868;48.918;9.438;2023-11-19T05:31:19;11.40;97.40
3705;DHT22;1868;48.918;9.438;2023-11-19T05:33:49;11.40;97.40
3705;DHT22;1868;48.918;9.438;2023-11-19T05:36:18;11.40;97.40
3705;DHT22;1868;48.918;9.438;2023-11-19T05:38:47;11.40;97.40
3705;DHT22;1868;48.918;9.438;2023-11-19T05:41:18;11.50;97.40
3705;DHT22;1868;48.918;9.438;2023-11-19T05:43:46;11.50;97.40
3705;DHT22;1868;48.918;9.438;2023-11-19T05:46:15;11.50;97.40
3705;DHT22;1868;48.918;9.438;2023-11-19T05:48:46;11.60;97.40
3705;DHT22;1868;48.918;9.438;2023-11-19T05:51:15;11.60;97.40
3705;DHT22;1868;48.918;9.438;2023-11-19T05:53:44;11.60;97.40
3705;DHT22;1868;48.918;9.438;2023-11-19T05:56:13;11.60;97.40
3705;DHT22;1868;48.918;9.438;2023-11-19T05:58:45;11.50;97.40
3705;DHT22;1868;48.918;9.438;2023-11-19T06:01:15;11.50;97.40
3705;DHT22;1868;48.918;9.438;2023-11-19T06:03:44;11.60;97.40
3705;DHT22;1868;48.918;9.438;2023-11-19T06:06:17;11.60;97.40
3705;DHT22;1868;48.918;9.438;2023-11-19T06:08:45;11.60;97.40
3705;DHT22;1868;48.918;9.438;2023-11-19T06:11:15;11.60;97.40
3705;DHT22;1868;48.918;9.438;2023-11-19T06:13:50;11.60;97.40
3705;DHT22;1868;48.918;9.438;2023-11-19T06:16:18;11.60;97.40
3705;DHT22;1868;48.918;9.438;2023-11-19T06:18:48;11.60;97.40
3705;DHT22;1868;48.918;9.438;2023-11-19T06:21:17;11.70;97.40
3705;DHT22;1868;48.918;9.438;2023-11-19T06:23:45;11.70;97.40
3705;DHT22;1868;48.918;9.438;2023-11-19T06:26:14;11.70;97.40
3705;DHT22;1868;48.918;9.438;2023-11-19T06:28:42;11.80;97.40
3705;DHT22;1868;48.918;9.438;2023-11-19T06:31:13;11.80;97.40
3705;DHT22;1868;48.918;9.438;2023-11-19T06:33:43;11.80;97.40
3705;DHT22;1868;48.918;9.438;2023-11-19T06:36:14;11.80;97.40
3705;DHT22;1868;48.918;9.438;2023-11-19T06:38:44;11.90;97.40
3705;DHT22;1868;48.918;9.438;2023-11-19T06:41:12;11.90;97.40
3705;DHT22;1868;48.918;9.438;2023-11-19T06:43:41;11.80;97.40
3705;DHT22;1868;48.918;9.438;2023-11-19T06:46:18;11.90;97.40
3705;DHT22;1868;48.918;9.438;2023-11-19T06:48:46;11.80;97.40
3705;DHT22;1868;48.918;9.438;2023-11-19T06:51:15;11.90;97.40
3705;DHT22;1868;48.918;9.438;2023-11-19T06:53:44;11.90;97.40
3705;DHT22;1868;48.918;9.438;2023-11-19T06:56:20;11.90;97.40
3705;DHT22;1868;48.918;9.438;2023-11-19T06:58:49;11.90;97.40
3705;DHT22;1868;48.918;9.438;2023-11-19T07:01:19;11.90;97.40
3705;DHT22;1868;48.918;9.438;2023-11-19T07:03:49;11.90;97.40
3705;DHT22;1868;48.918;9.438;2023-11-19T07:06:19;11.90;97.40
3705;DHT22;1868;48.918;9.438;2023-11-19T07:09:00;11.90;97.40
3705;DHT22;1868;48.918;9.438;2023-11-19T07:11:37;11.90;97.40
3705;DHT22;1868;48.918;9.438;2023-11-19T07:14:07;12.00;97.40
3705;DHT22;1868;48.918;9.438;2023-11-19T07:16:38;12.00;97.40
3705;DHT22;1868;48.918;9.438;2023-11-19T07:19:07;12.00;97.40
3705;DHT22;1868;48.918;9.438;2023-11-19T07:21:37;12.00;97.40
3705;DHT22;1868;48.918;9.438;2023-11-19T07:24:11;12.10;97.40
3705;DHT22;1868;48.918;9.438;2023-11-19T07:26:42;12.00;97.40
3705;DHT22;1868;48.918;9.438;2023-11-19T07:29:12;12.00;97.40
3705;DHT22;1868;48.918;9.438;2023-11-19T07:31:56;12.10;97.40
3705;DHT22;1868;48.918;9.438;2023-11-19T07:34:25;12.10;97.40
3705;DHT22;1868;48.918;9.438;2023-11-19T07:36:53;12.10;97.40
3705;DHT22;1868;48.918;9.438;2023-11-19T07:39:24;12.10;97.40
3705;DHT22;1868;48.918;9.438;2023-11-19T07:41:52;12.10;97.40
3705;DHT22;1868;48.918;9.438;2023-11-19T07:44:21;12.10;97.40
3705;DHT22;1868;48.918;9.438;2023-11-19T07:46:50;12.20;97.40
3705;DHT22;1868;48.918;9.438;2023-11-19T07:49:20;12.20;97.40
3705;DHT22;1868;48.918;9.438;2023-11-19T07:51:49;12.20;97.40
3705;DHT22;1868;48.918;9.438;2023-11-19T07:54:17;12.30;97.40
3705;DHT22;1868;48.918;9.438;2023-11-19T07:56:48;12.30;97.40
3705;DHT22;1868;48.918;9.438;2023-11-19T07:59:17;12.30;97.40
3705;DHT22;1868;48.918;9.438;2023-11-19T08:01:46;12.30;97.40
3705;DHT22;1868;48.918;9.438;2023-11-19T08:04:15;12.40;97.40
3705;DHT22;1868;48.918;9.438;2023-11-19T08:06:46;12.40;97.40
3705;DHT22;1868;48.918;9.438;2023-11-19T08:09:14;12.40;97.40
3705;DHT22;1868;48.918;9.438;2023-11-19T08:11:42;12.40;97.40
3705;DHT22;1868;48.918;9.438;2023-11-19T08:14:11;12.40;97.40
3705;DHT22;1868;48.918;9.438;2023-11-19T08:16:40;12.40;97.40
3705;DHT22;1868;48.918;9.438;2023-11-19T08:19:08;12.40;97.40
3705;DHT22;1868;48.918;9.438;2023-11-19T08:21:37;12.40;97.40
3705;DHT22;1868;48.918;9.438;2023-11-19T08:24:07;12.50;97.40
3705;DHT22;1868;48.918;9.438;2023-11-19T08:26:36;12.50;97.40
3705;DHT22;1868;48.918;9.438;2023-11-19T08:29:05;12.60;97.40
3705;DHT22;1868;48.918;9.438;2023-11-19T08:31:34;12.60;97.40
3705;DHT22;1868;48.918;9.438;2023-11-19T08:34:04;12.70;97.40
3705;DHT22;1868;48.918;9.438;2023-11-19T08:36:36;12.80;97.40
3705;DHT22;1868;48.918;9.438;2023-11-19T08:39:06;12.80;97.40
3705;DHT22;1868;48.918;9.438;2023-11-19T08:41:36;12.80;97.40
3705;DHT22;1868;48.918;9.438;2023-11-19T08:44:07;12.80;97.40
3705;DHT22;1868;48.918;9.438;2023-11-19T08:46:36;12.80;97.40
3705;DHT22;1868;48.918;9.438;2023-11-19T08:49:04;12.80;97.40
3705;DHT22;1868;48.918;9.438;2023-11-19T08:51:36;12.80;97.40
3705;DHT22;1868;48.918;9.438;2023-11-19T08:54:05;12.90;97.40
3705;DHT22;1868;48.918;9.438;2023-11-19T08:56:36;12.90;97.40
3705;DHT22;1868;48.918;9.438;2023-11-19T08:59:06;12.90;97.40
3705;DHT22;1868;48.918;9.438;2023-11-19T09:01:36;12.90;97.40
3705;DHT22;1868;48.918;9.438;2023-11-19T09:04:06;12.90;97.40
3705;DHT22;1868;48.918;9.438;2023-11-19T09:06:36;12.90;97.40
3705;DHT22;1868;48.918;9.438;2023-11-19T09:09:04;12.90;97.40
3705;DHT22;1868;48.918;9.438;2023-11-19T09:11:35;13.00;97.40
3705;DHT22;1868;48.918;9.438;2023-11-19T09:14:03;13.00;97.40
3705;DHT22;1868;48.918;9.438;2023-11-19T09:16:32;13.10;97.40
3705;DHT22;1868;48.918;9.438;2023-11-19T09:19:02;13.10;97.40
3705;DHT22;1868;48.918;9.438;2023-11-19T09:21:32;13.20;97.40
3705;DHT22;1868;48.918;9.438;2023-11-19T09:24:07;13.20;97.40
3705;DHT22;1868;48.918;9.438;2023-11-19T09:26:36;13.30;97.40
3705;DHT22;1868;48.918;9.438;2023-11-19T09:29:07;13.20;97.40
3705;DHT22;1868;48.918;9.438;2023-11-19T09:31:38;13.20;97.40
3705;DHT22;1868;48.918;9.438;2023-11-19T09:34:06;13.20;97.40
3705;DHT22;1868;48.918;9.438;2023-11-19T09:36:36;13.30;97.40
3705;DHT22;1868;48.918;9.438;2023-11-19T09:39:04;13.30;97.40
3705;DHT22;1868;48.918;9.438;2023-11-19T09:41:36;13.40;97.40
3705;DHT22;1868;48.918;9.438;2023-11-19T09:44:06;13.40;97.40
3705;DHT22;1868;48.918;9.438;2023-11-19T09:46:36;13.40;97.40
3705;DHT22;1868;48.918;9.438;2023-11-19T09:49:05;13.40;97.40
3705;DHT22;1868;48.918;9.438;2023-11-19T09:51:36;13.40;97.40
3705;DHT22;1868;48.918;9.438;2023-11-19T09:54:06;13.30;97.40
3705;DHT22;1868;48.918;9.438;2023-11-19T09:56:38;13.40;97.40
3705;DHT22;1868;48.918;9.438;2023-11-19T09:59:08;13.40;97.40
3705;DHT22;1868;48.918;9.438;2023-11-19T10:01:38;13.40;97.40
3705;DHT22;1868;48.918;9.438;2023-11-19T10:04:07;13.40;97.40
3705;DHT22;1868;48.918;9.438;2023-11-19T10:06:36;13.40;97.40
3705;DHT22;1868;48.918;9.438;2023-11-19T10:09:05;13.50;97.40
3705;DHT22;1868;48.918;9.438;2023-11-19T10:11:36;13.60;97.40
3705;DHT22;1868;48.918;9.438;2023-11-19T10:14:05;13.70;97.40
3705;DHT22;1868;48.918;9.438;2023-11-19T10:16:35;13.80;97.40
3705;DHT22;1868;48.918;9.438;2023-11-19T10:19:03;13.90;97.40
3705;DHT22;1868;48.918;9.438;2023-11-19T10:21:33;13.90;97.40
3705;DHT22;1868;48.918;9.438;2023-11-19T10:24:02;14.30;97.40
3705;DHT22;1868;48.918;9.438;2023-11-19T10:26:37;14.70;97.40
3705;DHT22;1868;48.918;9.438;2023-11-19T10:29:07;14.70;97.40
3705;DHT22;1868;48.918;9.438;2023-11-19T10:31:35;14.70;97.40
3705;DHT22;1868;48.918;9.438;2023-11-19T10:34:04;14.70;97.40
3705;DHT22;1868;48.918;9.438;2023-11-19T10:36:53;14.70;97.40
3705;DHT22;1868;48.918;9.438;2023-11-19T10:39:21;14.70;97.40
3705;DHT22;1868;48.918;9.438;2023-11-19T10:41:53;14.60;97.40
3705;DHT22;1868;48.918;9.438;2023-11-19T10:44:32;14.70;97.40
3705;DHT22;1868;48.918;9.438;2023-11-19T10:47:05;14.70;97.40
3705;DHT22;1868;48.918;9.438;2023-11-19T10:49:36;14.80;97.40
3705;DHT22;1868;48.918;9.438;2023-11-19T10:52:06;14.80;97.40
3705;DHT22;1868;48.918;9.438;2023-11-19T10:54:37;14.80;97.40
3705;DHT22;1868;48.918;9.438;2023-11-19T10:57:19;14.80;97.40
3705;DHT22;1868;48.918;9.438;2023-11-19T10:59:52;15.00;97.40
3705;DHT22;1868;48.918;9.438;2023-11-19T11:02:25;15.20;97.40
3705;DHT22;1868;48.918;9.438;2023-11-19T11:04:57;15.30;97.40
3705;DHT22;1868;48.918;9.438;2023-11-19T11:07:25;16.40;97.40
3705;DHT22;1868;48.918;9.438;2023-11-19T11:10:07;17.90;97.40
3705;DHT22;1868;48.918;9.438;2023-11-19T11:12:38;18.10;97.40
3705;DHT22;1868;48.918;9.438;2023-11-19T11:15:11;17.70;97.40
3705;DHT22;1868;48.918;9.438;2023-11-19T11:17:41;17.90;97.40
3705;DHT22;1868;48.918;9.438;2023-11-19T11:20:14;18.20;97.40
3705;DHT22;1868;48.918;9.438;2023-11-19T11:22:49;18.10;97.40
3705;DHT22;1868;48.918;9.438;2023-11-19T11:25:31;17.80;97.40
3705;DHT22;1868;48.918;9.438;2023-11-19T11:28:13;18.30;97.40
3705;DHT22;1868;48.918;9.438;2023-11-19T11:31:01;18.40;97.40
3705;DHT22;1868;48.918;9.438;2023-11-19T11:33:54;17.90;97.40
3705;DHT22;1868;48.918;9.438;2023-11-19T11:36:35;17.60;97.40
3705;DHT22;1868;48.918;9.438;2023-11-19T11:39:16;17.20;97.40
3705;DHT22;1868;48.918;9.438;2023-11-19T11:41:45;17.00;97.40
3705;DHT22;1868;48.918;9.438;2023-11-19T11:44:15;17.80;97.40
3705;DHT22;1868;48.918;9.438;2023-11-19T11:46:56;17.80;97.40
3705;DHT22;1868;48.918;9.438;2023-11-19T11:49:26;18.30;97.40
3705;DHT22;1868;48.918;9.438;2023-11-19T11:52:04;18.90;97.40
3705;DHT22;1868;48.918;9.438;2023-11-19T11:54:32;19.60;97.40
3705;DHT22;1868;48.918;9.438;2023-11-19T11:57:04;19.10;97.40
3705;DHT22;1868;48.918;9.438;2023-11-19T11:59:45;18.50;97.40
3705;DHT22;1868;48.918;9.438;2023-11-19T12:02:16;18.20;97.40
3705;DHT22;1868;48.918;9.438;2023-11-19T12:04:50;17.90;97.40
3705;DHT22;1868;48.918;9.438;2023-11-19T12:07:21;17.50;97.40
3705;DHT22;1868;48.918;9.438;2023-11-19T12:09:53;17.80;97.40
3705;DHT22;1868;48.918;9.438;2023-11-19T12:12:27;17.60;97.40
3705;DHT22;1868;48.918;9.438;2023-11-19T12:15:05;17.30;97.40
3705;DHT22;1868;48.918;9.438;2023-11-19T12:17:46;17.00;97.40
3705;DHT22;1868;48.918;9.438;2023-11-19T12:20:19;16.70;97.40
3705;DHT22;1868;48.918;9.438;2023-11-19T12:22:53;16.60;97.40
3705;DHT22;1868;48.918;9.438;2023-11-19T12:25:22;16.50;97.40
3705;DHT22;1868;48.918;9.438;2023-11-19T12:27:52;16.50;97.40
3705;DHT22;1868;48.918;9.438;2023-11-19T12:30:24;16.40;97.40
3705;DHT22;1868;48.918;9.438;2023-11-19T12:32:54;16.40;97.40
3705;DHT22;1868;48.918;9.438;2023-11-19T12:35:23;16.40;97.40
3705;DHT22;1868;48.918;9.438;2023-11-19T12:37:52;16.20;97.40
3705;DHT22;1868;48.918;9.438;2023-11-19T12:40:22;16.10;97.40
3705;DHT22;1868;48.918;9.438;2023-11-19T12:42:52;16.40;97.40
3705;DHT22;1868;48.918;9.438;2023-11-19T12:45:23;16.50;97.40
3705;DHT22;1868;48.918;9.438;2023-11-19T12:48:04;16.60;97.40
3705;DHT22;1868;48.918;9.438;2023-11-19T12:50:51;16.60;97.40
3705;DHT22;1868;48.918;9.438;2023-11-19T12:53:21;16.60;97.40
3705;DHT22;1868;48.918;9.438;2023-11-19T12:55:50;16.70;97.40
3705;DHT22;1868;48.918;9.438;2023-11-19T12:58:29;16.70;97.40
3705;DHT22;1868;48.918;9.438;2023-11-19T13:01:03;16.60;97.40
3705;DHT22;1868;48.918;9.438;2023-11-19T13:03:35;16.70;97.40
3705;DHT22;1868;48.918;9.438;2023-11-19T13:06:05;16.60;97.40
3705;DHT22;1868;48.918;9.438;2023-11-19T13:08:37;16.50;97.40
3705;DHT22;1868;48.918;9.438;2023-11-19T13:11:07;16.40;97.40
3705;DHT22;1868;48.918;9.438;2023-11-19T13:13:55;16.30;97.40
3705;DHT22;1868;48.918;9.438;2023-11-19T13:16:27;16.30;97.40
3705;DHT22;1868;48.918;9.438;2023-11-19T13:18:56;16.10;97.40
3705;DHT22;1868;48.918;9.438;2023-11-19T13:21:25;16.00;97.40
3705;DHT22;1868;48.918;9.438;2023-11-19T13:23:54;15.90;97.40
3705;DHT22;1868;48.918;9.438;2023-11-19T13:26:24;16.00;97.40
3705;DHT22;1868;48.918;9.438;2023-11-19T13:28:53;16.00;97.40
3705;DHT22;1868;48.918;9.438;2023-11-19T13:31:21;15.90;97.40
3705;DHT22;1868;48.918;9.438;2023-11-19T13:33:52;15.80;97.40
3705;DHT22;1868;48.918;9.438;2023-11-19T13:36:21;15.80;97.40
3705;DHT22;1868;48.918;9.438;2023-11-19T13:38:50;15.70;97.40
3705;DHT22;1868;48.918;9.438;2023-11-19T13:41:19;15.60;97.40
3705;DHT22;1868;48.918;9.438;2023-11-19T13:43:48;15.50;97.40
3705;DHT22;1868;48.918;9.438;2023-11-19T13:46:17;15.50;97.40
3705;DHT22;1868;48.918;9.438;2023-11-19T13:48:47;15.60;97.40
3705;DHT22;1868;48.918;9.438;2023-11-19T13:51:18;15.60;97.40
3705;DHT22;1868;48.918;9.438;2023-11-19T13:53:46;15.60;97.40
3705;DHT22;1868;48.918;9.438;2023-11-19T13:56:18;15.60;97.40
3705;DHT22;1868;48.918;9.438;2023-11-19T13:58:47;15.60;97.40
3705;DHT22;1868;48.918;9.438;2023-11-19T14:01:17;15.50;97.40
3705;DHT22;1868;48.918;9.438;2023-11-19T14:03:46;15.60;97.40
3705;DHT22;1868;48.918;9.438;2023-11-19T14:06:17;15.70;97.40
3705;DHT22;1868;48.918;9.438;2023-11-19T14:08:46;15.70;97.40
3705;DHT22;1868;48.918;9.438;2023-11-19T14:11:14;15.90;97.40
3705;DHT22;1868;48.918;9.438;2023-11-19T14:13:44;15.80;97.40
3705;DHT22;1868;48.918;9.438;2023-11-19T14:16:13;15.80;97.40
3705;DHT22;1868;48.918;9.438;2023-11-19T14:18:43;15.70;97.40
3705;DHT22;1868;48.918;9.438;2023-11-19T14:21:11;15.80;97.40
3705;DHT22;1868;48.918;9.438;2023-11-19T14:23:41;15.70;97.40
3705;DHT22;1868;48.918;9.438;2023-11-19T14:26:10;15.70;97.40
3705;DHT22;1868;48.918;9.438;2023-11-19T14:28:39;15.60;97.40
3705;DHT22;1868;48.918;9.438;2023-11-19T14:31:11;15.60;97.40
3705;DHT22;1868;48.918;9.438;2023-11-19T14:33:40;15.40;97.40
3705;DHT22;1868;48.918;9.438;2023-11-19T14:36:09;15.30;97.40
3705;DHT22;1868;48.918;9.438;2023-11-19T14:38:37;15.30;97.40
3705;DHT22;1868;48.918;9.438;2023-11-19T14:41:08;15.20;97.40
3705;DHT22;1868;48.918;9.438;2023-11-19T14:43:39;15.20;97.40
3705;DHT22;1868;48.918;9.438;2023-11-19T14:46:08;15.30;97.40
3705;DHT22;1868;48.918;9.438;2023-11-19T14:48:37;15.10;97.40
3705;DHT22;1868;48.918;9.438;2023-11-19T14:51:06;15.10;97.40
3705;DHT22;1868;48.918;9.438;2023-11-19T14:53:38;15.00;97.40
3705;DHT22;1868;48.918;9.438;2023-11-19T14:56:11;15.00;97.40
3705;DHT22;1868;48.918;9.438;2023-11-19T14:58:41;14.90;97.40
3705;DHT22;1868;48.918;9.438;2023-11-19T15:01:11;14.80;97.40
3705;DHT22;1868;48.918;9.438;2023-11-19T15:03:40;14.70;97.40
3705;DHT22;1868;48.918;9.438;2023-11-19T15:06:12;14.70;97.40
3705;DHT22;1868;48.918;9.438;2023-11-19T15:08:40;14.60;97.40
3705;DHT22;1868;48.918;9.438;2023-11-19T15:11:13;14.50;97.40
3705;DHT22;1868;48.918;9.438;2023-11-19T15:13:42;14.50;97.40
3705;DHT22;1868;48.918;9.438;2023-11-19T15:16:11;14.40;97.40
3705;DHT22;1868;48.918;9.438;2023-11-19T15:18:41;14.30;97.40
3705;DHT22;1868;48.918;9.438;2023-11-19T15:21:11;14.20;97.40
3705;DHT22;1868;48.918;9.438;2023-11-19T15:23:41;14.20;97.40
3705;DHT22;1868;48.918;9.438;2023-11-19T15:26:10;14.10;97.40
3705;DHT22;1868;48.918;9.438;2023-11-19T15:28:40;14.00;97.40
3705;DHT22;1868;48.918;9.438;2023-11-19T15:31:09;13.90;97.40
3705;DHT22;1868;48.918;9.438;2023-11-19T15:33:38;13.80;97.40
3705;DHT22;1868;48.918;9.438;2023-11-19T15:36:08;13.70;97.40
3705;DHT22;1868;48.918;9.438;2023-11-19T15:38:37;13.60;97.40
3705;DHT22;1868;48.918;9.438;2023-11-19T15:41:08;13.60;97.40
3705;DHT22;1868;48.918;9.438;2023-11-19T15:43:41;13.50;97.40
3705;DHT22;1868;48.918;9.438;2023-11-19T15:46:10;13.40;97.40
3705;DHT22;1868;48.918;9.438;2023-11-19T15:48:39;13.40;97.40
3705;DHT22;1868;48.918;9.438;2023-11-19T15:51:08;13.30;97.40
3705;DHT22;1868;48.918;9.438;2023-11-19T15:53:36;13.20;97.40
3705;DHT22;1868;48.918;9.438;2023-11-19T15:56:06;13.10;97.40
3705;DHT22;1868;48.918;9.438;2023-11-19T15:58:34;13.10;97.40
3705;DHT22;1868;48.918;9.438;2023-11-19T16:01:05;13.10;97.40
3705;DHT22;1868;48.918;9.438;2023-11-19T16:03:36;13.10;97.40
3705;DHT22;1868;48.918;9.438;2023-11-19T16:06:09;13.00;97.40
3705;DHT22;1868;48.918;9.438;2023-11-19T16:08:39;13.00;97.40
3705;DHT22;1868;48.918;9.438;2023-11-19T16:11:09;13.00;97.40
3705;DHT22;1868;48.918;9.438;2023-11-19T16:13:40;12.90;97.40
3705;DHT22;1868;48.918;9.438;2023-11-19T16:16:11;12.90;97.40
3705;DHT22;1868;48.918;9.438;2023-11-19T16:18:40;12.90;97.40
3705;DHT22;1868;48.918;9.438;2023-11-19T16:21:09;12.80;97.40
3705;DHT22;1868;48.918;9.438;2023-11-19T16:23:38;12.70;97.40